Time;durP1;ratioP1;P1;durP2;ratioP2;P2;SDS_P1;SDS_P2;PMS_P1;PMS_P2;Temp;Humidity;BMP_temperature;BMP_pressure;BME280_temperature;BME280_humidity;BME280_pressure;Samples;Min_cycle;Max_cycle;Signal;HPM_P1;HPM_P2
2023/10/28 00:03:56;;;;;;;2.28;0.15;;;7.30;99.90;;;;;;25345756;23;20476;-58
2023/10/28 00:13:58;;;;;;;0.65;0.15;;;8.10;99.90;;;;;;25345513;23;20034;-54
2023/10/28 00:24:01;;;;;;;1.73;0.20;;;7.80;99.90;;;;;;25345318;23;20632;-55
2023/10/28 00:34:05;;;;;;;2.63;0.40;;;8.50;99.90;;;;;;25344856;23;20001;-55
2023/10/28 00:44:06;;;;;;;4.57;0.52;;;9.00;99.90;;;;;;25344429;23;20006;-55
2023/10/28 00:54:08;;;;;;;2.45;0.60;;;8.40;99.90;;;;;;25343967;23;20014;-58
2023/10/28 01:04:10;;;;;;;2.78;0.43;;;8.00;99.90;;;;;;25343929;23;20010;-58
2023/10/28 01:14:12;;;;;;;1.80;0.47;;;8.30;99.90;;;;;;25294020;23;20006;-57
2023/10/28 01:24:14;;;;;;;2.83;0.80;;;8.90;99.90;;;;;;25317338;23;20022;-55
2023/10/28 01:34:15;;;;;;;1.73;0.43;;;8.90;99.90;;;;;;25341925;23;20018;-55
2023/10/28 01:44:18;;;;;;;3.25;0.50;;;8.60;99.90;;;;;;25342661;23;20013;-54
2023/10/28 01:54:20;;;;;;;4.53;0.70;;;9.70;99.90;;;;;;25341683;23;20069;-56
2023/10/28 02:04:22;;;;;;;2.40;0.68;;;9.70;99.90;;;;;;25343229;23;20005;-58
2023/10/28 02:14:24;;;;;;;4.93;0.93;;;9.70;99.90;;;;;;25315552;23;20005;-53
2023/10/28 02:24:28;;;;;;;2.70;0.57;;;9.20;99.90;;;;;;25340349;23;20013;-58
2023/10/28 02:34:29;;;;;;;1.63;0.52;;;9.00;99.90;;;;;;25338774;23;20006;-55
2023/10/28 02:44:52;;;;;;;2.88;0.63;;;8.80;99.90;;;;;;25340384;23;20010;-58
2023/10/28 02:54:54;;;;;;;6.88;0.70;;;9.10;99.90;;;;;;25360384;23;20057;-58
2023/10/28 03:04:56;;;;;;;2.50;0.63;;;9.30;99.90;;;;;;25313416;23;20017;-54
2023/10/28 03:14:58;;;;;;;3.08;0.40;;;9.10;99.90;;;;;;25338773;23;20013;-54
2023/10/28 03:25:00;;;;;;;3.60;0.80;;;8.90;99.90;;;;;;25338485;23;20009;-58
2023/10/28 03:35:01;;;;;;;5.18;0.80;;;8.40;99.90;;;;;;25338305;23;20002;-54
2023/10/28 03:45:05;;;;;;;6.05;0.77;;;7.30;99.90;;;;;;25342968;23;20009;-54
2023/10/28 03:55:07;;;;;;;5.18;0.90;;;6.80;99.90;;;;;;25344187;23;20010;-54
2023/10/28 04:05:09;;;;;;;9.13;1.02;;;6.50;99.90;;;;;;25344222;23;20437;-54
2023/10/28 04:15:13;;;;;;;8.32;1.15;;;6.20;99.90;;;;;;25343884;23;20030;-55
2023/10/28 04:25:15;;;;;;;9.43;1.83;;;6.00;99.90;;;;;;25343448;23;20520;-58
2023/10/28 04:35:16;;;;;;;7.75;1.90;;;5.80;99.90;;;;;;25343444;23;20038;-54
2023/10/28 04:45:20;;;;;;;16.10;2.88;;;5.80;99.90;;;;;;25343076;23;20385;-53
2023/10/28 04:55:23;;;;;;;10.57;3.50;;;5.90;99.90;;;;;;25341909;23;20457;-52
2023/10/28 05:05:25;;;;;;;15.52;3.97;;;5.90;99.90;;;;;;25342175;23;20064;-54
2023/10/28 05:15:28;;;;;;;20.25;6.32;;;6.20;99.90;;;;;;25315621;23;20014;-54
2023/10/28 05:25:30;;;;;;;20.65;7.22;;;6.40;99.90;;;;;;25341095;23;20065;-54
2023/10/28 05:35:32;;;;;;;17.95;5.88;;;6.80;99.90;;;;;;25340882;23;20010;-55
2023/10/28 05:45:34;;;;;;;19.27;10.45;;;6.70;99.90;;;;;;25340441;23;20021;-54
2023/10/28 05:55:36;;;;;;;17.83;10.85;;;6.50;99.90;;;;;;25339580;23;20010;-52
2023/10/28 06:05:38;;;;;;;23.73;12.65;;;6.60;99.90;;;;;;25339682;23;20484;-55
2023/10/28 06:15:41;;;;;;;22.85;10.88;;;7.10;99.90;;;;;;25339395;23;20002;-52
2023/10/28 06:25:43;;;;;;;19.45;8.50;;;7.60;99.90;;;;;;25339069;23;20017;-54
2023/10/28 06:35:46;;;;;;;14.88;7.40;;;7.80;99.90;;;;;;25339302;23;20005;-55
2023/10/28 06:45:48;;;;;;;11.00;5.95;;;7.90;99.90;;;;;;25338639;23;20009;-56
2023/10/28 06:55:49;;;;;;;12.77;5.07;;;8.00;99.90;;;;;;25338818;23;20017;-56
2023/10/28 07:05:51;;;;;;;13.20;5.88;;;8.30;99.90;;;;;;25338421;23;20450;-59
2023/10/28 07:16:01;;;;;;;12.43;6.68;;;8.00;99.90;;;;;;25340187;23;20002;-55
2023/10/28 07:26:03;;;;;;;12.32;6.13;;;7.80;99.90;;;;;;25386352;23;20006;-58
2023/10/28 07:36:06;;;;;;;11.57;4.95;;;8.30;99.90;;;;;;25319421;23;20006;-54
2023/10/28 07:46:07;;;;;;;18.17;6.28;;;9.20;99.90;;;;;;25345251;23;20006;-59
2023/10/28 07:56:09;;;;;;;12.73;5.57;;;9.90;99.90;;;;;;25344235;23;20382;-56
2023/10/28 08:06:12;;;;;;;12.38;5.38;;;10.80;99.90;;;;;;25317878;23;20307;-57
2023/10/28 08:16:18;;;;;;;10.38;3.60;;;11.50;99.90;;;;;;25344100;23;20009;-56
2023/10/28 08:26:20;;;;;;;10.90;3.03;;;11.50;99.90;;;;;;25357272;23;20016;-56
2023/10/28 08:36:21;;;;;;;5.88;2.78;;;12.90;99.90;;;;;;25342727;23;20014;-56
2023/10/28 08:46:24;;;;;;;3.78;1.58;;;13.80;99.90;;;;;;25343254;23;20031;-52
2023/10/28 08:56:26;;;;;;;3.78;1.27;;;13.80;99.90;;;;;;25342352;23;20069;-54
2023/10/28 09:06:28;;;;;;;3.58;1.50;;;14.00;99.90;;;;;;25342229;23;20013;-61
2023/10/28 09:16:30;;;;;;;7.13;1.73;;;14.80;99.90;;;;;;25342256;23;20485;-54
2023/10/28 09:26:31;;;;;;;5.38;1.73;;;15.20;99.90;;;;;;25315584;23;20068;-61
2023/10/28 09:36:33;;;;;;;4.78;0.98;;;15.10;99.90;;;;;;25339837;23;20006;-62
2023/10/28 09:46:36;;;;;;;2.65;0.95;;;15.40;99.90;;;;;;25340428;23;20006;-61
2023/10/28 09:56:40;;;;;;;3.95;0.85;;;15.00;99.90;;;;;;25339456;23;20017;-52
2023/10/28 10:06:42;;;;;;;3.58;1.42;;;15.00;99.90;;;;;;25339467;23;20002;-62
2023/10/28 10:16:51;;;;;;;2.95;1.17;;;15.00;99.90;;;;;;25339841;23;20010;-61
2023/10/28 10:26:58;;;;;;;7.97;1.50;;;15.30;99.90;;;;;;25379972;23;20015;-52
2023/10/28 10:37:00;;;;;;;4.50;1.10;;;15.80;99.90;;;;;;25379463;23;20009;-61
2023/10/28 10:47:04;;;;;;;5.55;1.10;;;15.00;99.90;;;;;;25339236;23;20017;-61
2023/10/28 10:57:07;;;;;;;5.25;1.20;;;15.30;99.90;;;;;;25352427;23;20014;-60
2023/10/28 11:07:09;;;;;;;2.45;0.80;;;15.40;99.90;;;;;;25352076;23;20014;-61
2023/10/28 11:17:11;;;;;;;3.20;0.90;;;15.30;99.90;;;;;;25351972;23;20374;-62
2023/10/28 11:27:19;;;;;;;7.88;1.52;;;16.30;99.90;;;;;;25351365;23;20013;-53
2023/10/28 11:37:22;;;;;;;4.18;1.13;;;16.40;99.90;;;;;;25350821;23;20430;-61
2023/10/28 11:47:24;;;;;;;5.03;1.30;;;16.60;99.90;;;;;;25351029;23;20010;-62
2023/10/28 11:57:26;;;;;;;6.07;1.40;;;16.30;99.90;;;;;;25098100;23;20019;-61
2023/10/28 12:07:27;;;;;;;3.08;1.30;;;16.10;99.90;;;;;;25092986;23;20092;-63
2023/10/28 12:17:33;;;;;;;4.07;1.42;;;16.30;99.90;;;;;;25067756;23;20014;-63
2023/10/28 12:27:36;;;;;;;5.88;1.75;;;16.10;99.90;;;;;;25195395;23;20014;-63
2023/10/28 12:37:37;;;;;;;3.40;1.50;;;16.40;99.90;;;;;;25222083;23;20003;-63
2023/10/28 12:47:39;;;;;;;4.70;1.77;;;16.20;99.90;;;;;;25220998;23;20007;-63
2023/10/28 12:57:41;;;;;;;5.88;2.35;;;15.90;99.90;;;;;;25276823;23;20508;-63
2023/10/28 13:07:43;;;;;;;7.30;1.90;;;15.70;99.90;;;;;;25342264;23;20002;-63
2023/10/28 13:17:44;;;;;;;6.90;1.80;;;14.90;99.90;;;;;;25343235;23;20010;-62
2023/10/28 13:27:46;;;;;;;8.23;2.17;;;14.10;99.90;;;;;;25315532;23;20006;-62
2023/10/28 13:37:49;;;;;;;6.03;2.10;;;13.40;99.90;;;;;;25313618;23;20006;-53
2023/10/28 13:47:51;;;;;;;6.60;2.72;;;12.90;99.90;;;;;;25340115;23;20072;-61
2023/10/28 13:57:53;;;;;;;8.00;2.63;;;12.20;99.90;;;;;;25339576;23;20006;-61
2023/10/28 14:07:55;;;;;;;8.15;2.67;;;11.90;99.90;;;;;;25339535;23;20006;-61
2023/10/28 14:17:57;;;;;;;6.85;2.50;;;11.80;99.90;;;;;;25339639;23;20006;-59
2023/10/28 14:27:58;;;;;;;6.93;2.42;;;11.40;99.90;;;;;;25338664;23;20065;-61
2023/10/28 14:38:00;;;;;;;5.38;2.22;;;11.00;99.90;;;;;;25337943;23;20076;-54
2023/10/28 14:48:03;;;;;;;4.50;1.88;;;10.50;99.90;;;;;;25338480;23;20006;-61
2023/10/28 14:58:04;;;;;;;6.60;1.70;;;10.10;99.90;;;;;;25338002;23;20022;-61
2023/10/28 15:08:06;;;;;;;0.40;0.10;;;10.10;99.90;;;;;;25337867;23;20238;-61
2023/10/28 15:18:08;;;;;;;0.63;0.10;;;9.80;99.90;;;;;;25338043;23;20410;-60
2023/10/28 15:28:10;;;;;;;3.10;0.15;;;9.00;99.90;;;;;;25337332;23;20006;-60
2023/10/28 15:38:12;;;;;;;2.95;0.40;;;8.50;99.90;;;;;;25340474;23;20006;-63
2023/10/28 15:48:14;;;;;;;93.60;56.20;;;8.00;99.90;;;;;;25318818;23;20338;-62
2023/10/28 15:58:17;;;;;;;5.50;0.55;;;7.70;99.90;;;;;;25344362;23;20014;-54
2023/10/28 16:08:19;;;;;;;3.65;0.40;;;7.50;99.90;;;;;;25343811;23;20005;-58
2023/10/28 16:18:26;;;;;;;1.50;0.40;;;7.80;99.90;;;;;;25344402;23;20009;-55
2023/10/28 16:28:28;;;;;;;6.10;0.45;;;7.60;99.90;;;;;;25344023;23;20413;-59
2023/10/28 16:38:30;;;;;;;2.80;0.55;;;7.80;99.90;;;;;;25343231;23;20009;-53
2023/10/28 16:48:32;;;;;;;3.90;0.40;;;7.60;99.90;;;;;;25343202;23;20069;-54
2023/10/28 16:58:35;;;;;;;4.93;0.80;;;7.80;99.90;;;;;;25342818;23;20315;-59
2023/10/28 17:08:37;;;;;;;5.95;0.75;;;7.60;99.90;;;;;;25342382;23;20006;-55
2023/10/28 17:18:39;;;;;;;5.15;1.05;;;8.00;99.90;;;;;;25316295;23;20025;-59
2023/10/28 17:28:42;;;;;;;3.60;0.70;;;7.80;99.90;;;;;;25341757;23;20006;-53
2023/10/28 17:38:46;;;;;;;5.28;0.93;;;7.70;99.90;;;;;;25341153;23;20006;-60
2023/10/28 17:48:48;;;;;;;5.05;1.00;;;7.60;99.90;;;;;;25315243;23;20009;-59
2023/10/28 17:58:49;;;;;;;5.88;1.00;;;7.20;99.90;;;;;;25339927;23;20042;-59
2023/10/28 18:08:52;;;;;;;7.88;0.80;;;6.80;99.90;;;;;;25340245;23;20383;-60
2023/10/28 18:18:53;;;;;;;8.68;1.23;;;6.60;99.90;;;;;;25339727;23;20037;-54
2023/10/28 18:28:55;;;;;;;10.13;1.42;;;6.30;99.90;;;;;;25339351;23;20434;-54
2023/10/28 18:38:57;;;;;;;4.40;1.40;;;6.40;99.90;;;;;;25339733;23;20065;-52
2023/10/28 18:49:01;;;;;;;7.38;1.55;;;6.80;99.90;;;;;;25339343;23;20065;-55
2023/10/28 18:59:03;;;;;;;7.40;1.40;;;7.20;99.90;;;;;;25339178;23;20010;-54
2023/10/28 19:09:06;;;;;;;7.53;2.40;;;7.30;99.90;;;;;;25338665;23;20034;-60
2023/10/28 19:19:09;;;;;;;6.70;2.50;;;7.30;99.90;;;;;;25346989;23;20002;-54
2023/10/28 19:29:12;;;;;;;10.13;3.00;;;7.00;99.90;;;;;;25346425;23;20006;-53
2023/10/28 19:39:14;;;;;;;8.30;2.42;;;6.70;99.90;;;;;;25345728;23;20394;-59
2023/10/28 19:49:19;;;;;;;8.57;2.03;;;6.70;99.90;;;;;;25345643;23;20006;-60
2023/10/28 19:59:21;;;;;;;7.05;1.58;;;6.90;99.90;;;;;;25344641;23;20068;-52
2023/10/28 20:09:24;;;;;;;4.50;1.60;;;7.00;99.90;;;;;;25344438;23;20006;-60
2023/10/28 20:19:27;;;;;;;5.60;1.38;;;6.70;99.90;;;;;;25344640;23;20354;-60
2023/10/28 20:29:31;;;;;;;11.45;2.00;;;6.30;99.90;;;;;;25344804;23;20002;-55
2023/10/28 20:39:34;;;;;;;8.55;2.53;;;6.10;99.90;;;;;;25344712;23;20010;-53
2023/10/28 20:49:36;;;;;;;10.88;3.00;;;5.80;99.90;;;;;;25343329;23;20009;-53
2023/10/28 20:59:38;;;;;;;6.43;2.33;;;5.80;99.90;;;;;;25342746;23;20014;-59
2023/10/28 21:09:40;;;;;;;7.28;2.17;;;5.70;99.90;;;;;;25342711;23;20389;-51
2023/10/28 21:19:42;;;;;;;9.35;2.78;;;5.60;99.90;;;;;;25315657;23;20072;-55
2023/10/28 21:29:45;;;;;;;6.40;0.93;;;5.40;99.90;;;;;;25315380;23;20057;-54
2023/10/28 21:39:46;;;;;;;0.98;0.20;;;5.30;99.90;;;;;;25340529;23;20397;-54
2023/10/28 21:49:48;;;;;;;1.05;0.20;;;5.40;99.90;;;;;;25340934;23;20048;-54
2023/10/28 21:59:50;;;;;;;1.15;0.20;;;5.70;99.90;;;;;;25340601;23;20037;-54
2023/10/28 22:09:55;;;;;;;1.95;0.30;;;5.60;99.90;;;;;;25341839;23;20002;-55
2023/10/28 22:19:58;;;;;;;2.38;0.38;;;5.40;99.90;;;;;;25340311;23;20006;-54
2023/10/28 22:30:02;;;;;;;4.22;0.60;;;5.20;99.90;;;;;;25339226;23;20030;-55
2023/10/28 22:40:04;;;;;;;3.22;0.52;;;5.20;99.90;;;;;;25338812;23;20062;-54
2023/10/28 22:50:07;;;;;;;3.50;0.70;;;5.20;99.90;;;;;;25338824;23;20065;-58
2023/10/28 23:00:09;;;;;;;3.75;0.65;;;5.20;99.90;;;;;;25300305;23;20014;-58
2023/10/28 23:10:11;;;;;;;2.53;0.60;;;5.20;99.90;;;;;;25338585;23;20014;-59
2023/10/28 23:20:13;;;;;;;3.50;0.40;;;5.10;99.90;;;;;;25338900;23;20010;-59
2023/10/28 23:30:15;;;;;;;2.38;0.50;;;5.00;99.90;;;;;;25338567;23;20009;-55
2023/10/28 23:40:16;;;;;;;1.95;0.50;;;5.00;99.90;;;;;;25338032;23;20013;-60
2023/10/28 23:50:18;;;;;;;6.60;0.60;;;5.10;99.90;;;;;;25338374;23;20758;-59
